Weather History for Kenansville, NC

Change the Weather History Date:

Tuesday, March 18, 2014

  Actual Average (KGSB) Record (KGSB)
Temperature  
Mean Temperature 36 °F -  
Max Temperature 40 °F 63 °F 84 °F (1999)
Min Temperature 33 °F 42 °F 30 °F (2007)
Degree Days  
Heating Degree Days 28    
Moisture  
Dew Point 36 °F    
Average Humidity 97    
Maximum Humidity 99    
Minimum Humidity 92    
Precipitation  
Precipitation 0.06 in - - ()
Sea Level Pressure  
Sea Level Pressure 30.00 in    
Wind  
Wind Speed 11 mph (North)    
Max Wind Speed 18 mph    
Max Gust Speed 23 mph    
Visibility 6 miles    
Events Rain    
Averages and records for this station are not official NWS values.
T = Trace of Precipitation, MM = Missing Value Source: NWS Daily Summary

Daily Weather History Graph

Daily Weather History Graph

Search for Another Location

Airport:

Trip Planner

Search our weather history database for the weather conditions in past years. The results will help you decide how hot, cold, wet, or windy it might be!

Date:

Astronomy

Mar. 18, 2014 Rise Set
Actual Time 7:18 AM EDT 7:22 PM EDT
Civil Twilight 6:53 AM EDT 7:47 PM EDT
Nautical Twilight 6:23 AM EDT 8:16 PM EDT
Astronomical Twilight 5:54 AM EDT 8:46 PM EDT
Moon 9:31 PM EDT (3/18) 8:11 AM EDT (3/18)
Length of Visible Light 12h 54m
Length of Day
12h 03m
Waning Gibbous, 96% of the Moon is Illuminated
Mar 18
Waning Gibbous
Mar 23
Last Quarter
Mar 30
New
Apr 7
First Quarter
Apr 15
Full

Hourly Weather History & Observations

Time (EDT) Temp. Windchill Dew Point Humidity Pressure Visibility Wind Dir Wind Speed Gust Speed Precip Events Conditions
12:15 AM 34.0 °F 26.6 °F 33.3 °F 97% 29.95 in 7.0 mi North 9.2 mph - N/A   Overcast
12:35 AM 33.8 °F 25.3 °F 33.1 °F 97% 29.95 in 5.0 mi North 11.5 mph - N/A   Overcast
12:55 AM 33.8 °F 26.4 °F 33.3 °F 98% 29.95 in 3.0 mi North 9.2 mph - N/A   Overcast
1:15 AM 33.8 °F 26.4 °F 33.1 °F 97% 29.95 in 4.0 mi North 9.2 mph - 0.01 in   Overcast
1:35 AM 33.8 °F 25.8 °F 33.1 °F 97% 29.95 in 5.0 mi North 10.4 mph - 0.01 in   Overcast
1:55 AM 33.8 °F 26.4 °F 33.1 °F 97% 29.95 in 5.0 mi North 9.2 mph - 0.01 in   Overcast
2:15 AM 33.4 °F 24.3 °F 32.9 °F 98% 29.94 in 4.0 mi North 12.7 mph - N/A   Overcast
2:35 AM 33.3 °F 25.1 °F 32.9 °F 99% 29.94 in 5.0 mi North 10.4 mph - N/A   Overcast
2:55 AM 33.3 °F 24.1 °F 32.9 °F 99% 29.94 in 4.0 mi North 12.7 mph - N/A   Overcast
3:15 AM 33.3 °F 25.7 °F 32.9 °F 99% 29.92 in 3.0 mi North 9.2 mph - N/A   Overcast
3:35 AM 33.3 °F 24.6 °F 32.9 °F 99% 29.91 in 4.0 mi North 11.5 mph - 0.01 in   Overcast
3:55 AM 33.4 °F 26.6 °F 32.9 °F 98% 29.93 in 5.0 mi North 8.1 mph - 0.01 in   Overcast
4:15 AM 33.4 °F 30.4 °F 32.9 °F 98% 29.93 in 4.0 mi NE 3.5 mph - N/A   Overcast
4:35 AM 33.6 °F 28.4 °F 33.1 °F 98% 29.93 in 7.0 mi NNE 5.8 mph - N/A   Overcast
4:55 AM 33.8 °F 27.0 °F 33.1 °F 97% 29.93 in 7.0 mi NNE 8.1 mph - N/A   Overcast
5:15 AM 33.8 °F 26.4 °F 33.1 °F 97% 29.92 in 7.0 mi North 9.2 mph - N/A   Overcast
5:35 AM 33.8 °F 23.9 °F 33.1 °F 97% 29.91 in 7.0 mi North 15.0 mph - N/A   Overcast
5:55 AM 34.0 °F 26.0 °F 33.3 °F 97% 29.94 in 10.0 mi North 10.4 mph - N/A   Overcast
6:15 AM 34.0 °F 26.0 °F 33.3 °F 97% 29.92 in 10.0 mi North 10.4 mph - N/A   Overcast
6:35 AM 33.8 °F 23.5 °F 33.1 °F 97% 29.93 in 10.0 mi North 16.1 mph 21.9 mph N/A   Overcast
6:55 AM 33.8 °F 23.5 °F 33.3 °F 98% 29.89 in 7.0 mi North 16.1 mph 21.9 mph N/A   Overcast
7:15 AM 33.4 °F 22.3 °F 32.9 °F 98% 29.87 in 5.0 mi North 18.4 mph 23.0 mph N/A   Overcast
7:35 AM 33.8 °F 25.3 °F 33.3 °F 98% 29.91 in 5.0 mi NNE 11.5 mph 17.3 mph N/A   Overcast
7:55 AM 33.8 °F 23.9 °F 33.1 °F 97% 29.91 in 7.0 mi North 15.0 mph 23.0 mph N/A   Overcast
8:15 AM 33.8 °F 24.8 °F 33.1 °F 97% 29.92 in 4.0 mi North 12.7 mph 19.6 mph N/A   Overcast
8:35 AM 33.8 °F 25.8 °F 33.3 °F 98% 29.93 in 3.0 mi North 10.4 mph 19.6 mph N/A   Overcast
8:55 AM 34.0 °F 26.0 °F 33.6 °F 99% 29.93 in 2.5 mi North 10.4 mph 20.7 mph N/A   Overcast
9:15 AM 34.2 °F 24.4 °F 33.8 °F 99% 29.94 in 2.0 mi North 15.0 mph 19.6 mph N/A   Overcast
9:35 AM 34.2 °F 24.8 °F 33.8 °F 99% 29.93 in 2.0 mi North 13.8 mph 18.4 mph N/A   Overcast
9:55 AM 34.7 °F 26.9 °F 34.2 °F 98% 29.94 in 1.8 mi North 10.4 mph 17.3 mph N/A   Overcast
10:15 AM 34.9 °F 25.7 °F 34.3 °F 98% 29.94 in 3.0 mi North 13.8 mph 17.3 mph N/A   Overcast
10:35 AM 35.2 °F 25.8 °F 34.7 °F 98% 29.94 in 4.0 mi North 15.0 mph 18.4 mph N/A   Overcast
10:55 AM 35.6 °F 26.6 °F 34.9 °F 97% 29.95 in 5.0 mi North 13.8 mph 20.7 mph N/A   Overcast
11:15 AM 35.6 °F 27.5 °F 34.9 °F 97% 29.97 in 3.0 mi NNW 11.5 mph 17.3 mph N/A   Overcast
11:35 AM 36.5 °F 29.7 °F 35.6 °F 97% 29.99 in 7.0 mi North 9.2 mph 18.4 mph N/A   Overcast
11:55 AM 37.0 °F 31.0 °F 36.1 °F 97% 30.00 in 7.0 mi North 8.1 mph 18.4 mph N/A   Overcast
12:15 PM 37.4 °F 30.3 °F 36.5 °F 97% 30.00 in 3.0 mi North 10.4 mph 17.3 mph N/A   Overcast
12:35 PM 38.1 °F 29.8 °F 37.2 °F 97% 30.00 in 2.5 mi North 13.8 mph 20.7 mph 0.01 in   Overcast
12:55 PM 39.0 °F 31.0 °F 37.8 °F 95% 30.00 in 5.0 mi North 13.8 mph 23.0 mph 0.01 in   Overcast
1:15 PM 39.4 °F 30.7 °F 37.9 °F 95% 30.01 in 10.0 mi North 16.1 mph 19.6 mph N/A   Overcast
1:35 PM 39.6 °F 33.5 °F 37.9 °F 94% 30.01 in 10.0 mi NNW 9.2 mph 17.3 mph N/A   Overcast
1:55 PM 39.9 °F 31.8 °F 38.3 °F 94% 30.01 in 10.0 mi NNW 15.0 mph 19.6 mph N/A   Overcast
2:15 PM 39.9 °F 32.5 °F 37.9 °F 93% 30.01 in 10.0 mi North 12.7 mph 21.9 mph N/A   Overcast
2:35 PM 39.4 °F 31.4 °F 37.2 °F 92% 30.01 in 7.0 mi NNW 13.8 mph 20.7 mph N/A   Overcast
2:55 PM 39.2 °F 32.0 °F 37.6 °F 94% 30.00 in 3.0 mi North 11.5 mph 23.0 mph 0.03 in Rain Light Rain
3:15 PM 38.7 °F 30.9 °F 37.2 °F 95% 30.00 in 7.0 mi North 12.7 mph 18.4 mph N/A   Overcast
3:35 PM 38.8 °F 32.6 °F 37.4 °F 95% 30.03 in 10.0 mi NNW 9.2 mph - N/A   Overcast
3:55 PM 39.2 °F 32.0 °F 37.4 °F 93% 30.03 in 10.0 mi NNW 11.5 mph 17.3 mph N/A   Overcast
4:15 PM 39.4 °F 31.8 °F 37.6 °F 93% 30.04 in 10.0 mi NNW 12.7 mph 18.4 mph N/A   Overcast
4:35 PM 39.2 °F 31.6 °F 37.8 °F 95% 30.05 in 4.0 mi NNW 12.7 mph - N/A   Overcast
4:55 PM 39.2 °F 31.2 °F 37.9 °F 95% 30.05 in 2.5 mi North 13.8 mph 23.0 mph N/A   Overcast
5:15 PM 39.2 °F 32.0 °F 38.3 °F 97% 30.05 in 2.0 mi NNW 11.5 mph 18.4 mph N/A   Overcast
5:35 PM 39.2 °F 32.0 °F 38.5 °F 97% 30.05 in 1.8 mi North 11.5 mph - N/A   Overcast
5:55 PM 39.4 °F 31.8 °F 38.5 °F 97% 30.05 in 2.5 mi North 12.7 mph 19.6 mph N/A   Overcast
6:15 PM 39.7 °F 32.3 °F 38.7 °F 96% 30.05 in 7.0 mi North 12.7 mph - N/A   Overcast
6:35 PM 40.1 °F 32.7 °F 38.7 °F 95% 30.06 in 10.0 mi North 12.7 mph 17.3 mph N/A   Overcast
6:55 PM 40.1 °F 32.7 °F 38.5 °F 94% 30.06 in 10.0 mi North 12.7 mph 19.6 mph N/A   Overcast
7:15 PM 40.3 °F 32.2 °F 38.5 °F 93% 30.07 in 10.0 mi North 15.0 mph 21.9 mph N/A   Overcast
7:35 PM 40.3 °F 34.4 °F 38.5 °F 93% 30.08 in 10.0 mi North 9.2 mph - N/A   Overcast
7:55 PM 40.1 °F 33.2 °F 38.3 °F 93% 30.08 in 10.0 mi North 11.5 mph - N/A   Overcast
8:15 PM 40.1 °F 32.0 °F 38.5 °F 94% 30.08 in 10.0 mi North 15.0 mph - N/A   Overcast
8:35 PM 40.1 °F 33.2 °F 38.3 °F 93% 30.08 in 10.0 mi North 11.5 mph 17.3 mph N/A   Overcast
8:55 PM 39.9 °F 32.9 °F 38.7 °F 95% 30.10 in 7.0 mi North 11.5 mph 19.6 mph N/A   Overcast
9:15 PM 39.7 °F 32.7 °F 38.7 °F 96% 30.10 in 5.0 mi North 11.5 mph 16.1 mph N/A   Overcast
9:35 PM 39.7 °F 33.2 °F 38.7 °F 96% 30.12 in 5.0 mi North 10.4 mph 17.3 mph N/A   Overcast
9:55 PM 39.6 °F 33.5 °F 38.8 °F 97% 30.12 in 4.0 mi North 9.2 mph - N/A   Overcast
10:15 PM 39.6 °F 33.0 °F 38.8 °F 97% 30.13 in 3.0 mi North 10.4 mph - N/A   Overcast
10:35 PM 39.6 °F 33.5 °F 39.0 °F 98% 30.13 in 3.0 mi North 9.2 mph - N/A   Overcast
10:55 PM 39.6 °F 33.5 °F 39.0 °F 98% 30.13 in 3.0 mi North 9.2 mph - N/A   Overcast
11:15 PM 39.4 °F 33.2 °F 39.0 °F 99% 30.14 in 2.5 mi North 9.2 mph - N/A   Overcast
11:35 PM 39.4 °F 32.7 °F 38.8 °F 98% 30.13 in 3.0 mi North 10.4 mph - N/A   Overcast
11:55 PM 39.2 °F 33.6 °F 38.7 °F 98% 30.13 in 5.0 mi North 8.1 mph - N/A   Overcast